sensor_id;sensor_type;location;lat;lon;timestamp;temperature;humidity
41447;DHT22;27185;52.040;4.490;2023-02-19T00:00:16;11.90;99.90
41447;DHT22;27185;52.040;4.490;2023-02-19T00:03:02;11.90;99.90
41447;DHT22;27185;52.040;4.490;2023-02-19T00:05:48;12.00;99.90
41447;DHT22;27185;52.040;4.490;2023-02-19T00:08:35;11.90;99.90
41447;DHT22;27185;52.040;4.490;2023-02-19T00:11:23;12.00;99.90
41447;DHT22;27185;52.040;4.490;2023-02-19T00:14:13;12.00;99.90
41447;DHT22;27185;52.040;4.490;2023-02-19T00:16:59;12.10;99.90
41447;DHT22;27185;52.040;4.490;2023-02-19T00:19:44;12.10;99.90
41447;DHT22;27185;52.040;4.490;2023-02-19T00:22:30;12.10;99.90
41447;DHT22;27185;52.040;4.490;2023-02-19T00:25:15;12.10;99.90
41447;DHT22;27185;52.040;4.490;2023-02-19T00:28:01;12.20;99.90
41447;DHT22;27185;52.040;4.490;2023-02-19T00:30:47;12.20;99.90
41447;DHT22;27185;52.040;4.490;2023-02-19T00:33:33;12.10;99.90
41447;DHT22;27185;52.040;4.490;2023-02-19T00:36:20;12.10;99.90
41447;DHT22;27185;52.040;4.490;2023-02-19T00:39:07;12.20;99.90
41447;DHT22;27185;52.040;4.490;2023-02-19T00:41:52;12.20;99.90
41447;DHT22;27185;52.040;4.490;2023-02-19T00:44:38;12.20;99.90
41447;DHT22;27185;52.040;4.490;2023-02-19T00:47:23;12.20;99.90
41447;DHT22;27185;52.040;4.490;2023-02-19T00:50:09;12.30;99.90
41447;DHT22;27185;52.040;4.490;2023-02-19T00:52:55;12.30;99.90
41447;DHT22;27185;52.040;4.490;2023-02-19T00:55:40;12.30;99.90
41447;DHT22;27185;52.040;4.490;2023-02-19T00:58:26;12.30;99.90
41447;DHT22;27185;52.040;4.490;2023-02-19T01:01:12;12.30;99.90
41447;DHT22;27185;52.040;4.490;2023-02-19T01:03:57;12.30;99.90
41447;DHT22;27185;52.040;4.490;2023-02-19T01:06:44;12.40;99.90
41447;DHT22;27185;52.040;4.490;2023-02-19T01:09:30;12.30;99.90
41447;DHT22;27185;52.040;4.490;2023-02-19T01:12:15;12.40;99.90
41447;DHT22;27185;52.040;4.490;2023-02-19T01:15:01;12.40;99.90
41447;DHT22;27185;52.040;4.490;2023-02-19T01:17:46;12.50;99.90
41447;DHT22;27185;52.040;4.490;2023-02-19T01:20:32;12.50;99.90
41447;DHT22;27185;52.040;4.490;2023-02-19T01:23:18;12.50;99.90
41447;DHT22;27185;52.040;4.490;2023-02-19T01:26:05;12.50;99.90
41447;DHT22;27185;52.040;4.490;2023-02-19T01:28:52;12.50;99.90
41447;DHT22;27185;52.040;4.490;2023-02-19T01:31:39;12.50;99.90
41447;DHT22;27185;52.040;4.490;2023-02-19T01:34:26;12.50;99.90
41447;DHT22;27185;52.040;4.490;2023-02-19T01:37:14;12.50;99.90
41447;DHT22;27185;52.040;4.490;2023-02-19T01:40:00;12.50;99.90
41447;DHT22;27185;52.040;4.490;2023-02-19T01:42:45;12.60;99.90
41447;DHT22;27185;52.040;4.490;2023-02-19T01:45:37;12.60;99.90
41447;DHT22;27185;52.040;4.490;2023-02-19T01:48:29;12.60;99.90
41447;DHT22;27185;52.040;4.490;2023-02-19T01:51:18;12.60;99.90
41447;DHT22;27185;52.040;4.490;2023-02-19T01:54:07;12.60;99.90
41447;DHT22;27185;52.040;4.490;2023-02-19T01:56:54;12.60;99.90
41447;DHT22;27185;52.040;4.490;2023-02-19T01:59:42;12.60;99.90
41447;DHT22;27185;52.040;4.490;2023-02-19T02:02:28;12.50;99.90
41447;DHT22;27185;52.040;4.490;2023-02-19T02:05:30;12.50;99.90
41447;DHT22;27185;52.040;4.490;2023-02-19T02:08:17;12.60;99.90
41447;DHT22;27185;52.040;4.490;2023-02-19T02:11:23;12.50;99.90
41447;DHT22;27185;52.040;4.490;2023-02-19T02:14:09;12.50;99.90
41447;DHT22;27185;52.040;4.490;2023-02-19T02:32:50;12.60;99.90
41447;DHT22;27185;52.040;4.490;2023-02-19T02:36:00;12.60;99.90
41447;DHT22;27185;52.040;4.490;2023-02-19T02:38:48;12.70;99.90
41447;DHT22;27185;52.040;4.490;2023-02-19T02:41:34;12.60;99.90
41447;DHT22;27185;52.040;4.490;2023-02-19T02:44:33;12.60;99.90
41447;DHT22;27185;52.040;4.490;2023-02-19T02:47:19;12.60;99.90
41447;DHT22;27185;52.040;4.490;2023-02-19T02:50:29;12.60;99.90
41447;DHT22;27185;52.040;4.490;2023-02-19T02:56:38;12.70;99.90
41447;DHT22;27185;52.040;4.490;2023-02-19T02:59:28;12.60;99.90
41447;DHT22;27185;52.040;4.490;2023-02-19T03:02:22;12.60;99.90
41447;DHT22;27185;52.040;4.490;2023-02-19T03:05:16;12.50;99.90
41447;DHT22;27185;52.040;4.490;2023-02-19T03:08:30;12.40;99.90
41447;DHT22;27185;52.040;4.490;2023-02-19T03:11:18;12.30;99.90
41447;DHT22;27185;52.040;4.490;2023-02-19T03:14:30;12.20;99.90
41447;DHT22;27185;52.040;4.490;2023-02-19T03:17:59;12.10;99.90
41447;DHT22;27185;52.040;4.490;2023-02-19T03:21:06;12.00;99.90
41447;DHT22;27185;52.040;4.490;2023-02-19T03:23:53;11.90;99.90
41447;DHT22;27185;52.040;4.490;2023-02-19T03:26:58;11.90;99.90
41447;DHT22;27185;52.040;4.490;2023-02-19T03:29:48;11.90;99.90
41447;DHT22;27185;52.040;4.490;2023-02-19T03:32:53;11.90;99.90
41447;DHT22;27185;52.040;4.490;2023-02-19T03:35:54;11.90;99.90
41447;DHT22;27185;52.040;4.490;2023-02-19T03:39:22;11.90;99.90
41447;DHT22;27185;52.040;4.490;2023-02-19T03:41:57;11.90;99.90
41447;DHT22;27185;52.040;4.490;2023-02-19T04:03:40;11.70;99.90
41447;DHT22;27185;52.040;4.490;2023-02-19T04:06:30;11.70;99.90
41447;DHT22;27185;52.040;4.490;2023-02-19T04:09:16;11.70;99.90
41447;DHT22;27185;52.040;4.490;2023-02-19T04:12:04;11.70;99.90
41447;DHT22;27185;52.040;4.490;2023-02-19T04:15:00;11.80;99.90
41447;DHT22;27185;52.040;4.490;2023-02-19T04:17:52;11.70;99.90
41447;DHT22;27185;52.040;4.490;2023-02-19T04:20:43;11.70;99.90
41447;DHT22;27185;52.040;4.490;2023-02-19T04:23:32;11.70;99.90
41447;DHT22;27185;52.040;4.490;2023-02-19T04:26:20;11.70;99.90
41447;DHT22;27185;52.040;4.490;2023-02-19T04:29:06;11.60;99.90
41447;DHT22;27185;52.040;4.490;2023-02-19T04:31:52;11.60;99.90
41447;DHT22;27185;52.040;4.490;2023-02-19T04:34:38;11.50;99.90
41447;DHT22;27185;52.040;4.490;2023-02-19T04:37:23;11.50;99.90
41447;DHT22;27185;52.040;4.490;2023-02-19T04:40:09;11.60;99.90
41447;DHT22;27185;52.040;4.490;2023-02-19T04:42:55;11.50;99.90
41447;DHT22;27185;52.040;4.490;2023-02-19T04:45:41;11.50;99.90
41447;DHT22;27185;52.040;4.490;2023-02-19T04:48:26;11.60;99.90
41447;DHT22;27185;52.040;4.490;2023-02-19T04:51:12;11.60;99.90
41447;DHT22;27185;52.040;4.490;2023-02-19T04:53:58;11.60;99.90
41447;DHT22;27185;52.040;4.490;2023-02-19T04:56:44;11.60;99.90
41447;DHT22;27185;52.040;4.490;2023-02-19T04:59:29;11.60;99.90
41447;DHT22;27185;52.040;4.490;2023-02-19T05:02:15;11.60;99.90
41447;DHT22;27185;52.040;4.490;2023-02-19T05:05:00;11.70;99.90
41447;DHT22;27185;52.040;4.490;2023-02-19T05:07:46;11.70;99.90
41447;DHT22;27185;52.040;4.490;2023-02-19T05:10:32;11.70;99.90
41447;DHT22;27185;52.040;4.490;2023-02-19T05:13:18;11.70;99.90
41447;DHT22;27185;52.040;4.490;2023-02-19T05:16:06;11.70;99.90
41447;DHT22;27185;52.040;4.490;2023-02-19T05:18:52;11.70;99.90
41447;DHT22;27185;52.040;4.490;2023-02-19T05:21:38;11.70;99.90
41447;DHT22;27185;52.040;4.490;2023-02-19T05:24:25;11.70;99.90
41447;DHT22;27185;52.040;4.490;2023-02-19T05:27:12;11.70;99.90
41447;DHT22;27185;52.040;4.490;2023-02-19T05:29:58;11.70;99.90
41447;DHT22;27185;52.040;4.490;2023-02-19T05:32:43;11.70;99.90
41447;DHT22;27185;52.040;4.490;2023-02-19T05:35:29;11.70;99.90
41447;DHT22;27185;52.040;4.490;2023-02-19T05:38:15;11.70;99.90
41447;DHT22;27185;52.040;4.490;2023-02-19T05:41:15;11.70;99.90
41447;DHT22;27185;52.040;4.490;2023-02-19T05:44:01;11.70;99.90
41447;DHT22;27185;52.040;4.490;2023-02-19T05:46:46;11.70;99.90
41447;DHT22;27185;52.040;4.490;2023-02-19T05:49:32;11.60;99.90
41447;DHT22;27185;52.040;4.490;2023-02-19T05:52:17;11.60;99.90
41447;DHT22;27185;52.040;4.490;2023-02-19T05:55:03;11.50;99.90
41447;DHT22;27185;52.040;4.490;2023-02-19T05:57:49;11.50;99.90
41447;DHT22;27185;52.040;4.490;2023-02-19T06:00:34;11.50;99.90
41447;DHT22;27185;52.040;4.490;2023-02-19T06:03:20;11.40;99.90
41447;DHT22;27185;52.040;4.490;2023-02-19T06:06:06;11.40;99.90
41447;DHT22;27185;52.040;4.490;2023-02-19T06:08:53;11.40;99.90
41447;DHT22;27185;52.040;4.490;2023-02-19T06:11:39;11.40;99.90
41447;DHT22;27185;52.040;4.490;2023-02-19T06:14:24;11.30;99.90
41447;DHT22;27185;52.040;4.490;2023-02-19T06:17:10;11.40;99.90
41447;DHT22;27185;52.040;4.490;2023-02-19T06:19:56;11.30;99.90
41447;DHT22;27185;52.040;4.490;2023-02-19T06:22:41;11.40;99.90
41447;DHT22;27185;52.040;4.490;2023-02-19T06:25:27;11.40;99.90
41447;DHT22;27185;52.040;4.490;2023-02-19T06:28:12;11.30;99.90
41447;DHT22;27185;52.040;4.490;2023-02-19T06:30:58;11.30;99.90
41447;DHT22;27185;52.040;4.490;2023-02-19T06:33:44;11.40;99.90
41447;DHT22;27185;52.040;4.490;2023-02-19T06:36:30;11.40;99.90
41447;DHT22;27185;52.040;4.490;2023-02-19T06:39:16;11.40;99.90
41447;DHT22;27185;52.040;4.490;2023-02-19T06:42:01;11.40;99.90
41447;DHT22;27185;52.040;4.490;2023-02-19T06:44:47;11.40;99.90
41447;DHT22;27185;52.040;4.490;2023-02-19T06:47:33;11.40;99.90
41447;DHT22;27185;52.040;4.490;2023-02-19T06:50:18;11.50;99.90
41447;DHT22;27185;52.040;4.490;2023-02-19T06:53:04;11.50;99.90
41447;DHT22;27185;52.040;4.490;2023-02-19T06:55:58;11.50;99.90
41447;DHT22;27185;52.040;4.490;2023-02-19T06:58:44;11.50;99.90
41447;DHT22;27185;52.040;4.490;2023-02-19T07:01:31;11.50;99.90
41447;DHT22;27185;52.040;4.490;2023-02-19T07:04:17;11.60;99.90
41447;DHT22;27185;52.040;4.490;2023-02-19T07:07:03;11.60;99.90
41447;DHT22;27185;52.040;4.490;2023-02-19T07:09:49;11.60;99.90
41447;DHT22;27185;52.040;4.490;2023-02-19T07:12:34;11.60;99.90
41447;DHT22;27185;52.040;4.490;2023-02-19T07:15:19;11.60;99.90
41447;DHT22;27185;52.040;4.490;2023-02-19T07:18:05;11.70;99.90
41447;DHT22;27185;52.040;4.490;2023-02-19T07:20:54;11.70;99.90
41447;DHT22;27185;52.040;4.490;2023-02-19T07:23:40;11.60;99.90
41447;DHT22;27185;52.040;4.490;2023-02-19T07:26:26;11.60;99.90
41447;DHT22;27185;52.040;4.490;2023-02-19T07:29:11;11.60;99.90
41447;DHT22;27185;52.040;4.490;2023-02-19T07:31:57;11.50;99.90
41447;DHT22;27185;52.040;4.490;2023-02-19T07:34:42;11.50;99.90
41447;DHT22;27185;52.040;4.490;2023-02-19T07:37:28;11.40;99.90
41447;DHT22;27185;52.040;4.490;2023-02-19T07:40:13;11.40;99.90
41447;DHT22;27185;52.040;4.490;2023-02-19T07:42:59;11.40;99.90
41447;DHT22;27185;52.040;4.490;2023-02-19T07:45:45;11.40;99.90
41447;DHT22;27185;52.040;4.490;2023-02-19T07:48:30;11.40;99.90
41447;DHT22;27185;52.040;4.490;2023-02-19T07:51:17;11.30;99.90
41447;DHT22;27185;52.040;4.490;2023-02-19T07:54:03;11.40;99.90
41447;DHT22;27185;52.040;4.490;2023-02-19T07:56:48;11.40;99.90
41447;DHT22;27185;52.040;4.490;2023-02-19T07:59:34;11.40;99.90
41447;DHT22;27185;52.040;4.490;2023-02-19T08:02:19;11.40;99.90
41447;DHT22;27185;52.040;4.490;2023-02-19T08:05:24;11.40;99.90
41447;DHT22;27185;52.040;4.490;2023-02-19T08:08:11;11.30;99.90
41447;DHT22;27185;52.040;4.490;2023-02-19T08:11:00;11.40;99.90
41447;DHT22;27185;52.040;4.490;2023-02-19T08:14:04;11.30;99.90
41447;DHT22;27185;52.040;4.490;2023-02-19T08:16:50;11.30;99.90
41447;DHT22;27185;52.040;4.490;2023-02-19T08:19:35;11.30;99.90
41447;DHT22;27185;52.040;4.490;2023-02-19T08:22:21;11.30;99.90
41447;DHT22;27185;52.040;4.490;2023-02-19T08:25:06;11.30;99.90
41447;DHT22;27185;52.040;4.490;2023-02-19T08:27:52;11.30;99.90
41447;DHT22;27185;52.040;4.490;2023-02-19T08:30:38;11.20;99.90
41447;DHT22;27185;52.040;4.490;2023-02-19T08:33:24;11.30;99.90
41447;DHT22;27185;52.040;4.490;2023-02-19T08:36:10;11.30;99.90
41447;DHT22;27185;52.040;4.490;2023-02-19T08:38:55;11.30;99.90
41447;DHT22;27185;52.040;4.490;2023-02-19T08:41:41;11.40;99.90
41447;DHT22;27185;52.040;4.490;2023-02-19T08:44:26;11.40;99.90
41447;DHT22;27185;52.040;4.490;2023-02-19T08:47:12;11.40;99.90
41447;DHT22;27185;52.040;4.490;2023-02-19T08:49:57;11.40;99.90
41447;DHT22;27185;52.040;4.490;2023-02-19T08:52:43;11.40;99.90
41447;DHT22;27185;52.040;4.490;2023-02-19T08:55:28;11.50;99.90
41447;DHT22;27185;52.040;4.490;2023-02-19T08:58:14;11.50;99.90
41447;DHT22;27185;52.040;4.490;2023-02-19T09:00:59;11.50;99.90
41447;DHT22;27185;52.040;4.490;2023-02-19T09:03:45;11.50;99.90
41447;DHT22;27185;52.040;4.490;2023-02-19T09:06:31;11.60;99.90
41447;DHT22;27185;52.040;4.490;2023-02-19T09:09:16;11.60;99.90
41447;DHT22;27185;52.040;4.490;2023-02-19T09:12:05;11.60;99.90
41447;DHT22;27185;52.040;4.490;2023-02-19T09:14:51;11.60;99.90
41447;DHT22;27185;52.040;4.490;2023-02-19T09:17:37;11.70;99.90
41447;DHT22;27185;52.040;4.490;2023-02-19T09:20:22;11.70;99.90
41447;DHT22;27185;52.040;4.490;2023-02-19T09:23:08;11.80;99.90
41447;DHT22;27185;52.040;4.490;2023-02-19T09:25:57;11.80;99.90
41447;DHT22;27185;52.040;4.490;2023-02-19T09:28:44;11.90;99.90
41447;DHT22;27185;52.040;4.490;2023-02-19T09:31:29;12.00;99.90
41447;DHT22;27185;52.040;4.490;2023-02-19T09:34:15;12.00;99.90
41447;DHT22;27185;52.040;4.490;2023-02-19T09:37:01;12.10;99.90
41447;DHT22;27185;52.040;4.490;2023-02-19T09:39:47;12.20;99.90
41447;DHT22;27185;52.040;4.490;2023-02-19T09:42:33;12.30;99.90
41447;DHT22;27185;52.040;4.490;2023-02-19T09:45:20;12.40;99.90
41447;DHT22;27185;52.040;4.490;2023-02-19T09:48:07;12.50;99.90
41447;DHT22;27185;52.040;4.490;2023-02-19T09:50:54;12.50;99.90
41447;DHT22;27185;52.040;4.490;2023-02-19T09:53:42;12.50;99.90
41447;DHT22;27185;52.040;4.490;2023-02-19T09:56:28;12.50;99.90
41447;DHT22;27185;52.040;4.490;2023-02-19T09:59:18;12.40;99.90
41447;DHT22;27185;52.040;4.490;2023-02-19T10:02:16;12.40;99.90
41447;DHT22;27185;52.040;4.490;2023-02-19T10:05:02;12.30;99.90
41447;DHT22;27185;52.040;4.490;2023-02-19T10:07:50;12.30;99.90
41447;DHT22;27185;52.040;4.490;2023-02-19T10:10:36;12.20;99.90
41447;DHT22;27185;52.040;4.490;2023-02-19T10:13:23;12.20;99.90
41447;DHT22;27185;52.040;4.490;2023-02-19T10:16:16;12.20;99.90
41447;DHT22;27185;52.040;4.490;2023-02-19T10:19:03;12.00;99.90
41447;DHT22;27185;52.040;4.490;2023-02-19T10:21:49;12.00;99.90
41447;DHT22;27185;52.040;4.490;2023-02-19T10:24:34;11.90;99.90
41447;DHT22;27185;52.040;4.490;2023-02-19T10:27:20;11.90;99.90
41447;DHT22;27185;52.040;4.490;2023-02-19T10:30:06;11.80;99.90
41447;DHT22;27185;52.040;4.490;2023-02-19T10:35:51;11.80;99.90
41447;DHT22;27185;52.040;4.490;2023-02-19T10:38:38;11.80;99.90
41447;DHT22;27185;52.040;4.490;2023-02-19T10:41:24;11.80;99.90
41447;DHT22;27185;52.040;4.490;2023-02-19T10:44:15;11.80;99.90
41447;DHT22;27185;52.040;4.490;2023-02-19T10:47:03;11.80;99.90
41447;DHT22;27185;52.040;4.490;2023-02-19T10:49:49;11.70;99.90
41447;DHT22;27185;52.040;4.490;2023-02-19T10:52:35;11.70;99.90
41447;DHT22;27185;52.040;4.490;2023-02-19T10:55:31;11.70;99.90
41447;DHT22;27185;52.040;4.490;2023-02-19T10:58:21;11.70;99.90
41447;DHT22;27185;52.040;4.490;2023-02-19T11:01:10;11.80;99.90
41447;DHT22;27185;52.040;4.490;2023-02-19T11:04:15;11.90;99.90
41447;DHT22;27185;52.040;4.490;2023-02-19T11:07:12;11.90;99.90
41447;DHT22;27185;52.040;4.490;2023-02-19T11:09:59;12.00;99.90
41447;DHT22;27185;52.040;4.490;2023-02-19T11:12:46;12.00;99.90
41447;DHT22;27185;52.040;4.490;2023-02-19T11:15:35;12.10;99.90
41447;DHT22;27185;52.040;4.490;2023-02-19T11:18:25;12.10;99.90
41447;DHT22;27185;52.040;4.490;2023-02-19T11:21:25;12.20;99.90
41447;DHT22;27185;52.040;4.490;2023-02-19T11:24:23;12.10;99.90
41447;DHT22;27185;52.040;4.490;2023-02-19T11:27:15;12.20;99.90
41447;DHT22;27185;52.040;4.490;2023-02-19T11:53:26;12.00;99.90
41447;DHT22;27185;52.040;4.490;2023-02-19T11:56:17;12.00;99.90
41447;DHT22;27185;52.040;4.490;2023-02-19T11:59:04;12.00;99.90
41447;DHT22;27185;52.040;4.490;2023-02-19T12:16:42;12.20;99.90
41447;DHT22;27185;52.040;4.490;2023-02-19T12:19:36;12.30;99.90
41447;DHT22;27185;52.040;4.490;2023-02-19T12:22:28;12.30;99.90
41447;DHT22;27185;52.040;4.490;2023-02-19T12:25:20;12.40;99.90
41447;DHT22;27185;52.040;4.490;2023-02-19T12:28:12;12.40;99.90
41447;DHT22;27185;52.040;4.490;2023-02-19T12:31:06;12.50;99.90
41447;DHT22;27185;52.040;4.490;2023-02-19T12:48:30;12.40;99.90
41447;DHT22;27185;52.040;4.490;2023-02-19T12:51:20;12.30;99.90
41447;DHT22;27185;52.040;4.490;2023-02-19T12:56:59;12.30;99.90
41447;DHT22;27185;52.040;4.490;2023-02-19T12:59:47;12.30;99.90
41447;DHT22;27185;52.040;4.490;2023-02-19T13:08:53;12.50;99.90
41447;DHT22;27185;52.040;4.490;2023-02-19T13:11:45;12.60;99.90
41447;DHT22;27185;52.040;4.490;2023-02-19T13:17:23;13.10;99.90
41447;DHT22;27185;52.040;4.490;2023-02-19T13:23:15;13.60;99.90
41447;DHT22;27185;52.040;4.490;2023-02-19T13:37:38;13.70;99.90
41447;DHT22;27185;52.040;4.490;2023-02-19T13:40:32;13.60;99.90
41447;DHT22;27185;52.040;4.490;2023-02-19T13:43:39;13.50;99.90
41447;DHT22;27185;52.040;4.490;2023-02-19T13:46:24;13.40;99.90
41447;DHT22;27185;52.040;4.490;2023-02-19T14:01:16;12.50;99.90
41447;DHT22;27185;52.040;4.490;2023-02-19T14:04:07;12.40;99.90
41447;DHT22;27185;52.040;4.490;2023-02-19T14:09:47;12.20;99.90
41447;DHT22;27185;52.040;4.490;2023-02-19T14:12:34;12.10;99.90
41447;DHT22;27185;52.040;4.490;2023-02-19T14:21:17;12.30;99.90
41447;DHT22;27185;52.040;4.490;2023-02-19T14:24:10;12.40;99.90
41447;DHT22;27185;52.040;4.490;2023-02-19T14:26:56;12.40;99.90
41447;DHT22;27185;52.040;4.490;2023-02-19T14:29:41;12.30;99.90
41447;DHT22;27185;52.040;4.490;2023-02-19T14:32:28;12.30;99.90
41447;DHT22;27185;52.040;4.490;2023-02-19T14:35:17;12.20;99.90
41447;DHT22;27185;52.040;4.490;2023-02-19T14:38:03;12.20;99.90
41447;DHT22;27185;52.040;4.490;2023-02-19T14:40:49;12.10;99.90
41447;DHT22;27185;52.040;4.490;2023-02-19T14:43:34;12.00;99.90
41447;DHT22;27185;52.040;4.490;2023-02-19T14:46:26;11.90;99.90
41447;DHT22;27185;52.040;4.490;2023-02-19T14:52:02;11.70;99.90
41447;DHT22;27185;52.040;4.490;2023-02-19T14:57:42;11.60;99.90
41447;DHT22;27185;52.040;4.490;2023-02-19T15:00:38;11.60;99.90
41447;DHT22;27185;52.040;4.490;2023-02-19T15:03:25;11.70;99.90
41447;DHT22;27185;52.040;4.490;2023-02-19T15:06:11;11.70;99.90
41447;DHT22;27185;52.040;4.490;2023-02-19T15:08:58;11.70;99.90
41447;DHT22;27185;52.040;4.490;2023-02-19T15:11:46;11.70;99.90
41447;DHT22;27185;52.040;4.490;2023-02-19T15:14:32;11.70;99.90
41447;DHT22;27185;52.040;4.490;2023-02-19T15:17:36;11.70;99.90
41447;DHT22;27185;52.040;4.490;2023-02-19T15:20:26;11.70;99.90
41447;DHT22;27185;52.040;4.490;2023-02-19T15:23:15;11.70;99.90
41447;DHT22;27185;52.040;4.490;2023-02-19T15:26:02;11.80;99.90
41447;DHT22;27185;52.040;4.490;2023-02-19T15:28:55;11.80;99.90
41447;DHT22;27185;52.040;4.490;2023-02-19T15:31:48;11.80;99.90
41447;DHT22;27185;52.040;4.490;2023-02-19T15:34:34;11.80;99.90
41447;DHT22;27185;52.040;4.490;2023-02-19T15:37:19;11.70;99.90
41447;DHT22;27185;52.040;4.490;2023-02-19T15:40:05;11.70;99.90
41447;DHT22;27185;52.040;4.490;2023-02-19T15:42:52;11.70;99.90
41447;DHT22;27185;52.040;4.490;2023-02-19T15:45:39;11.60;99.90
41447;DHT22;27185;52.040;4.490;2023-02-19T15:48:26;11.50;99.90
41447;DHT22;27185;52.040;4.490;2023-02-19T15:51:14;11.50;99.90
41447;DHT22;27185;52.040;4.490;2023-02-19T15:54:04;11.50;99.90
41447;DHT22;27185;52.040;4.490;2023-02-19T15:56:52;11.50;99.90
41447;DHT22;27185;52.040;4.490;2023-02-19T15:59:39;11.50;99.90
41447;DHT22;27185;52.040;4.490;2023-02-19T16:02:26;11.40;99.90
41447;DHT22;27185;52.040;4.490;2023-02-19T16:05:13;11.30;99.90
41447;DHT22;27185;52.040;4.490;2023-02-19T16:08:14;11.20;99.90
41447;DHT22;27185;52.040;4.490;2023-02-19T16:11:00;11.10;99.90
41447;DHT22;27185;52.040;4.490;2023-02-19T16:13:46;11.00;99.90
41447;DHT22;27185;52.040;4.490;2023-02-19T16:16:35;11.00;99.90
41447;DHT22;27185;52.040;4.490;2023-02-19T16:19:29;11.00;99.90
41447;DHT22;27185;52.040;4.490;2023-02-19T16:22:16;10.90;99.90
41447;DHT22;27185;52.040;4.490;2023-02-19T16:25:03;10.80;99.90
41447;DHT22;27185;52.040;4.490;2023-02-19T16:27:51;10.70;99.90
41447;DHT22;27185;52.040;4.490;2023-02-19T16:30:36;10.60;99.90
41447;DHT22;27185;52.040;4.490;2023-02-19T16:42:07;10.20;99.90
41447;DHT22;27185;52.040;4.490;2023-02-19T16:44:54;10.20;99.90
41447;DHT22;27185;52.040;4.490;2023-02-19T16:47:40;10.10;99.90
41447;DHT22;27185;52.040;4.490;2023-02-19T16:50:31;10.00;99.90
41447;DHT22;27185;52.040;4.490;2023-02-19T16:53:18;9.90;99.90
41447;DHT22;27185;52.040;4.490;2023-02-19T16:56:07;9.80;99.90
41447;DHT22;27185;52.040;4.490;2023-02-19T16:58:52;9.80;99.90
41447;DHT22;27185;52.040;4.490;2023-02-19T17:01:38;9.70;99.90
41447;DHT22;27185;52.040;4.490;2023-02-19T17:04:23;9.70;99.90
41447;DHT22;27185;52.040;4.490;2023-02-19T17:07:11;9.60;99.90
41447;DHT22;27185;52.040;4.490;2023-02-19T17:09:57;9.60;99.90
41447;DHT22;27185;52.040;4.490;2023-02-19T17:12:42;9.50;99.90
41447;DHT22;27185;52.040;4.490;2023-02-19T17:15:28;9.50;99.90
41447;DHT22;27185;52.040;4.490;2023-02-19T17:18:14;9.50;99.90
41447;DHT22;27185;52.040;4.490;2023-02-19T17:21:16;9.40;99.90
41447;DHT22;27185;52.040;4.490;2023-02-19T17:24:04;9.40;99.90
41447;DHT22;27185;52.040;4.490;2023-02-19T17:26:49;9.40;99.90
41447;DHT22;27185;52.040;4.490;2023-02-19T17:29:35;9.30;99.90
41447;DHT22;27185;52.040;4.490;2023-02-19T17:32:21;9.30;99.90
41447;DHT22;27185;52.040;4.490;2023-02-19T17:35:06;9.20;99.90
41447;DHT22;27185;52.040;4.490;2023-02-19T17:37:52;9.20;99.90
41447;DHT22;27185;52.040;4.490;2023-02-19T17:40:38;9.20;99.90
41447;DHT22;27185;52.040;4.490;2023-02-19T17:43:23;9.10;99.90
41447;DHT22;27185;52.040;4.490;2023-02-19T17:46:19;9.10;99.90
41447;DHT22;27185;52.040;4.490;2023-02-19T17:49:05;9.10;99.90
41447;DHT22;27185;52.040;4.490;2023-02-19T17:51:51;9.10;99.90
41447;DHT22;27185;52.040;4.490;2023-02-19T17:54:37;9.10;99.90
41447;DHT22;27185;52.040;4.490;2023-02-19T17:57:22;9.10;99.90
41447;DHT22;27185;52.040;4.490;2023-02-19T18:00:09;9.10;99.90
41447;DHT22;27185;52.040;4.490;2023-02-19T18:02:55;9.00;99.90
41447;DHT22;27185;52.040;4.490;2023-02-19T18:05:40;9.00;99.90
41447;DHT22;27185;52.040;4.490;2023-02-19T18:08:26;9.00;99.90
41447;DHT22;27185;52.040;4.490;2023-02-19T18:11:11;9.00;99.90
41447;DHT22;27185;52.040;4.490;2023-02-19T18:13:57;9.00;99.90
41447;DHT22;27185;52.040;4.490;2023-02-19T18:16:45;8.90;99.90
41447;DHT22;27185;52.040;4.490;2023-02-19T18:19:30;9.00;99.90
41447;DHT22;27185;52.040;4.490;2023-02-19T18:22:16;8.90;99.90
41447;DHT22;27185;52.040;4.490;2023-02-19T18:25:02;8.90;99.90
41447;DHT22;27185;52.040;4.490;2023-02-19T18:27:48;8.90;99.90
41447;DHT22;27185;52.040;4.490;2023-02-19T18:30:33;8.80;99.90
41447;DHT22;27185;52.040;4.490;2023-02-19T18:33:19;8.80;99.90
41447;DHT22;27185;52.040;4.490;2023-02-19T18:36:08;8.80;99.90
41447;DHT22;27185;52.040;4.490;2023-02-19T18:38:53;8.70;99.90
41447;DHT22;27185;52.040;4.490;2023-02-19T18:41:39;8.70;99.90
41447;DHT22;27185;52.040;4.490;2023-02-19T18:44:24;8.70;99.90
41447;DHT22;27185;52.040;4.490;2023-02-19T18:47:10;8.70;99.90
41447;DHT22;27185;52.040;4.490;2023-02-19T18:49:56;8.60;99.90
41447;DHT22;27185;52.040;4.490;2023-02-19T18:52:42;8.60;99.90
41447;DHT22;27185;52.040;4.490;2023-02-19T18:55:28;8.60;99.90
41447;DHT22;27185;52.040;4.490;2023-02-19T18:58:13;8.60;99.90
41447;DHT22;27185;52.040;4.490;2023-02-19T19:00:59;8.60;99.90
41447;DHT22;27185;52.040;4.490;2023-02-19T19:03:44;8.50;99.90
41447;DHT22;27185;52.040;4.490;2023-02-19T19:06:30;8.60;99.90
41447;DHT22;27185;52.040;4.490;2023-02-19T19:09:15;8.50;99.90
41447;DHT22;27185;52.040;4.490;2023-02-19T19:12:01;8.50;99.90
41447;DHT22;27185;52.040;4.490;2023-02-19T19:14:46;8.50;99.90
41447;DHT22;27185;52.040;4.490;2023-02-19T19:17:32;8.50;99.90
41447;DHT22;27185;52.040;4.490;2023-02-19T19:20:18;8.50;99.90
41447;DHT22;27185;52.040;4.490;2023-02-19T19:23:05;8.50;99.90
41447;DHT22;27185;52.040;4.490;2023-02-19T19:25:50;8.50;99.90
41447;DHT22;27185;52.040;4.490;2023-02-19T19:28:36;8.50;99.90
41447;DHT22;27185;52.040;4.490;2023-02-19T19:31:24;8.50;99.90
41447;DHT22;27185;52.040;4.490;2023-02-19T19:34:10;8.40;99.90
41447;DHT22;27185;52.040;4.490;2023-02-19T19:36:55;8.40;99.90
41447;DHT22;27185;52.040;4.490;2023-02-19T19:39:42;8.40;99.90
41447;DHT22;27185;52.040;4.490;2023-02-19T19:42:28;8.40;99.90
41447;DHT22;27185;52.040;4.490;2023-02-19T19:45:13;8.40;99.90
41447;DHT22;27185;52.040;4.490;2023-02-19T19:47:59;8.40;99.90
41447;DHT22;27185;52.040;4.490;2023-02-19T19:50:45;8.40;99.90
41447;DHT22;27185;52.040;4.490;2023-02-19T19:53:30;8.40;99.90
41447;DHT22;27185;52.040;4.490;2023-02-19T19:56:16;8.40;99.90
41447;DHT22;27185;52.040;4.490;2023-02-19T19:59:01;8.40;99.90
41447;DHT22;27185;52.040;4.490;2023-02-19T20:01:48;8.40;99.90
41447;DHT22;27185;52.040;4.490;2023-02-19T20:04:33;8.40;99.90
41447;DHT22;27185;52.040;4.490;2023-02-19T20:07:19;8.40;99.90
41447;DHT22;27185;52.040;4.490;2023-02-19T20:10:05;8.30;99.90
41447;DHT22;27185;52.040;4.490;2023-02-19T20:12:51;8.40;99.90
41447;DHT22;27185;52.040;4.490;2023-02-19T20:15:37;8.40;99.90
41447;DHT22;27185;52.040;4.490;2023-02-19T20:18:22;8.40;99.90
41447;DHT22;27185;52.040;4.490;2023-02-19T20:21:10;8.30;99.90